Cajamar, Brazil
Current Conditions -  °F | °C
As of 2:00 PM on Wednesday 26 Nov 2014 (Local Time) from SBMT Reporting Station
Broken Clouds Broken Clouds  
Wind Chill: 81°   Ceiling: 3000
Heat Index: 83°   Visibility: 6mi
Dew Point: 66°   Wind: 9mph
Humidity: 61%   Direction: 300°WNW
Pressure: 29.85"   Gusts: NA
Location:  23.36°S, 46.88°W
Report Text: SBMT 261600Z 30008KT 9999 FEW008 BKN030 BKN060 27/19 Q1011
Loading
Personal Weather Stations






























Interactive Weather Map New forecast layout! Learn more

10-Day Weather Forecast

Advertisements
Track Severe Weather on mobile